sensor_id;sensor_type;location;lat;lon;timestamp;noise_LAeq;noise_LA_min;noise_LA_max;noise_LA01;noise_LA95
45651;Laerm;31365;48.858;8.530;2023-03-13T00:00:32;41.29;37.32;47.70;;
45651;Laerm;31365;48.858;8.530;2023-03-13T00:03:02;41.19;37.12;52.93;;
45651;Laerm;31365;48.858;8.530;2023-03-13T00:05:34;41.14;36.98;43.24;;
45651;Laerm;31365;48.858;8.530;2023-03-13T00:08:03;52.98;36.91;71.14;;
45651;Laerm;31365;48.858;8.530;2023-03-13T00:10:31;41.34;37.88;54.53;;
45651;Laerm;31365;48.858;8.530;2023-03-13T00:13:00;41.26;37.32;52.53;;
45651;Laerm;31365;48.858;8.530;2023-03-13T00:15:28;56.32;37.88;72.63;;
45651;Laerm;31365;48.858;8.530;2023-03-13T00:17:56;42.50;37.12;60.71;;
45651;Laerm;31365;48.858;8.530;2023-03-13T00:20:26;41.67;36.45;61.60;;
45651;Laerm;31365;48.858;8.530;2023-03-13T00:22:54;41.13;37.52;49.98;;
45651;Laerm;31365;48.858;8.530;2023-03-13T00:25:23;58.16;38.05;76.89;;
45651;Laerm;31365;48.858;8.530;2023-03-13T00:27:51;55.05;36.45;75.40;;
45651;Laerm;31365;48.858;8.530;2023-03-13T00:30:20;41.23;36.91;43.86;;
45651;Laerm;31365;48.858;8.530;2023-03-13T00:32:48;41.33;36.45;58.39;;
45651;Laerm;31365;48.858;8.530;2023-03-13T00:35:16;41.09;36.45;43.09;;
45651;Laerm;31365;48.858;8.530;2023-03-13T00:37:48;52.89;37.32;72.20;;
45651;Laerm;31365;48.858;8.530;2023-03-13T00:40:16;41.21;36.69;46.33;;
45651;Laerm;31365;48.858;8.530;2023-03-13T00:42:46;51.93;35.94;71.21;;
45651;Laerm;31365;48.858;8.530;2023-03-13T00:45:16;41.86;37.12;50.85;;
45651;Laerm;31365;48.858;8.530;2023-03-13T00:47:46;41.39;36.20;51.63;;
45651;Laerm;31365;48.858;8.530;2023-03-13T00:50:16;41.23;36.45;51.98;;
45651;Laerm;31365;48.858;8.530;2023-03-13T00:52:45;41.31;35.36;44.23;;
45651;Laerm;31365;48.858;8.530;2023-03-13T00:55:14;41.46;37.52;52.37;;
45651;Laerm;31365;48.858;8.530;2023-03-13T00:57:43;41.20;38.05;43.63;;
45651;Laerm;31365;48.858;8.530;2023-03-13T01:00:12;41.53;37.12;58.27;;
45651;Laerm;31365;48.858;8.530;2023-03-13T01:02:42;41.71;36.45;59.19;;
45651;Laerm;31365;48.858;8.530;2023-03-13T01:05:10;41.49;38.05;50.51;;
45651;Laerm;31365;48.858;8.530;2023-03-13T01:07:39;41.31;37.32;43.54;;
45651;Laerm;31365;48.858;8.530;2023-03-13T01:10:09;41.75;37.12;61.19;;
45651;Laerm;31365;48.858;8.530;2023-03-13T01:12:39;42.07;37.52;64.05;;
45651;Laerm;31365;48.858;8.530;2023-03-13T01:15:08;41.28;37.35;47.26;;
45651;Laerm;31365;48.858;8.530;2023-03-13T01:17:37;41.14;36.91;44.35;;
45651;Laerm;31365;48.858;8.530;2023-03-13T01:20:07;41.36;37.52;43.34;;
45651;Laerm;31365;48.858;8.530;2023-03-13T01:22:36;53.08;37.32;72.03;;
45651;Laerm;31365;48.858;8.530;2023-03-13T01:25:05;43.44;37.88;65.44;;
45651;Laerm;31365;48.858;8.530;2023-03-13T01:27:34;41.23;37.32;53.91;;
45651;Laerm;31365;48.858;8.530;2023-03-13T01:30:05;41.57;37.70;49.72;;
45651;Laerm;31365;48.858;8.530;2023-03-13T01:32:34;51.97;37.52;73.57;;
45651;Laerm;31365;48.858;8.530;2023-03-13T01:35:02;42.86;36.45;71.64;;
45651;Laerm;31365;48.858;8.530;2023-03-13T01:37:31;57.14;37.12;77.86;;
45651;Laerm;31365;48.858;8.530;2023-03-13T01:40:00;46.00;37.32;65.20;;
45651;Laerm;31365;48.858;8.530;2023-03-13T01:42:30;53.03;37.12;73.43;;
45651;Laerm;31365;48.858;8.530;2023-03-13T01:46:00;51.17;38.37;71.04;;
45651;Laerm;31365;48.858;8.530;2023-03-13T01:48:44;43.24;38.95;56.37;;
45651;Laerm;31365;48.858;8.530;2023-03-13T01:51:20;47.09;38.21;73.45;;
45651;Laerm;31365;48.858;8.530;2023-03-13T01:53:58;41.94;37.70;56.48;;
45651;Laerm;31365;48.858;8.530;2023-03-13T01:56:41;41.81;35.94;47.79;;
45651;Laerm;31365;48.858;8.530;2023-03-13T01:59:15;43.33;38.05;67.32;;
45651;Laerm;31365;48.858;8.530;2023-03-13T02:01:50;41.79;37.70;50.13;;
45651;Laerm;31365;48.858;8.530;2023-03-13T02:04:22;42.56;38.67;52.61;;
45651;Laerm;31365;48.858;8.530;2023-03-13T02:06:56;41.69;37.32;58.00;;
45651;Laerm;31365;48.858;8.530;2023-03-13T02:09:30;41.38;36.91;55.34;;
45651;Laerm;31365;48.858;8.530;2023-03-13T02:12:05;41.99;37.35;60.01;;
45651;Laerm;31365;48.858;8.530;2023-03-13T02:14:37;41.40;38.21;43.39;;
45651;Laerm;31365;48.858;8.530;2023-03-13T02:17:10;42.86;35.66;62.61;;
45651;Laerm;31365;48.858;8.530;2023-03-13T02:19:44;56.44;37.70;73.09;;
45651;Laerm;31365;48.858;8.530;2023-03-13T02:22:23;42.13;37.52;47.26;;
45651;Laerm;31365;48.858;8.530;2023-03-13T02:25:02;41.49;36.91;48.08;;
45651;Laerm;31365;48.858;8.530;2023-03-13T02:27:35;51.01;37.32;71.11;;
45651;Laerm;31365;48.858;8.530;2023-03-13T02:30:06;41.25;35.94;52.43;;
45651;Laerm;31365;48.858;8.530;2023-03-13T02:32:36;41.43;37.88;43.58;;
45651;Laerm;31365;48.858;8.530;2023-03-13T02:35:09;41.46;37.53;44.11;;
45651;Laerm;31365;48.858;8.530;2023-03-13T02:37:41;41.29;36.91;47.72;;
45651;Laerm;31365;48.858;8.530;2023-03-13T02:40:21;41.38;35.94;43.68;;
45651;Laerm;31365;48.858;8.530;2023-03-13T02:42:54;41.49;37.52;43.54;;
45651;Laerm;31365;48.858;8.530;2023-03-13T02:45:23;41.91;37.32;60.60;;
45651;Laerm;31365;48.858;8.530;2023-03-13T02:47:51;41.76;35.94;57.11;;
45651;Laerm;31365;48.858;8.530;2023-03-13T02:50:20;41.46;37.32;43.99;;
45651;Laerm;31365;48.858;8.530;2023-03-13T02:52:54;41.63;36.56;58.16;;
45651;Laerm;31365;48.858;8.530;2023-03-13T02:55:30;41.67;37.32;58.83;;
45651;Laerm;31365;48.858;8.530;2023-03-13T02:58:01;41.32;37.32;43.94;;
45651;Laerm;31365;48.858;8.530;2023-03-13T03:00:33;41.35;38.02;50.23;;
45651;Laerm;31365;48.858;8.530;2023-03-13T03:03:01;63.07;36.69;81.71;;
45651;Laerm;31365;48.858;8.530;2023-03-13T03:05:30;53.16;38.21;72.58;;
45651;Laerm;31365;48.858;8.530;2023-03-13T03:07:58;51.02;37.70;70.89;;
45651;Laerm;31365;48.858;8.530;2023-03-13T03:10:28;41.90;38.05;55.23;;
45651;Laerm;31365;48.858;8.530;2023-03-13T03:12:56;55.54;37.52;77.26;;
45651;Laerm;31365;48.858;8.530;2023-03-13T03:15:26;52.77;38.37;72.70;;
45651;Laerm;31365;48.858;8.530;2023-03-13T03:17:54;41.69;38.52;51.01;;
45651;Laerm;31365;48.858;8.530;2023-03-13T03:20:23;42.74;36.20;66.61;;
45651;Laerm;31365;48.858;8.530;2023-03-13T03:22:52;57.98;37.88;78.49;;
45651;Laerm;31365;48.858;8.530;2023-03-13T03:25:20;59.60;36.91;77.63;;
45651;Laerm;31365;48.858;8.530;2023-03-13T03:27:49;54.45;38.21;72.14;;
45651;Laerm;31365;48.858;8.530;2023-03-13T03:30:18;53.19;38.21;71.89;;
45651;Laerm;31365;48.858;8.530;2023-03-13T03:32:48;55.87;38.05;75.45;;
45651;Laerm;31365;48.858;8.530;2023-03-13T03:35:19;60.58;37.12;78.57;;
45651;Laerm;31365;48.858;8.530;2023-03-13T03:37:47;42.00;38.21;50.85;;
45651;Laerm;31365;48.858;8.530;2023-03-13T03:40:17;51.67;38.37;69.21;;
45651;Laerm;31365;48.858;8.530;2023-03-13T03:42:47;42.02;37.88;47.91;;
45651;Laerm;31365;48.858;8.530;2023-03-13T03:45:15;58.74;38.67;76.36;;
45651;Laerm;31365;48.858;8.530;2023-03-13T03:47:44;52.46;38.95;71.50;;
45651;Laerm;31365;48.858;8.530;2023-03-13T03:50:13;52.72;38.37;71.92;;
45651;Laerm;31365;48.858;8.530;2023-03-13T03:52:52;51.32;37.88;69.44;;
45651;Laerm;31365;48.858;8.530;2023-03-13T03:55:21;59.95;39.58;79.37;;
45651;Laerm;31365;48.858;8.530;2023-03-13T03:57:49;42.30;38.67;49.29;;
45651;Laerm;31365;48.858;8.530;2023-03-13T04:00:32;54.21;38.21;73.72;;
45651;Laerm;31365;48.858;8.530;2023-03-13T04:03:00;56.78;40.03;75.51;;
45651;Laerm;31365;48.858;8.530;2023-03-13T04:05:30;54.75;40.13;71.65;;
45651;Laerm;31365;48.858;8.530;2023-03-13T04:07:59;58.22;39.08;75.28;;
45651;Laerm;31365;48.858;8.530;2023-03-13T04:10:28;59.11;38.81;77.81;;
45651;Laerm;31365;48.858;8.530;2023-03-13T04:12:57;56.23;39.81;74.74;;
45651;Laerm;31365;48.858;8.530;2023-03-13T04:15:26;58.39;39.21;79.62;;
45651;Laerm;31365;48.858;8.530;2023-03-13T04:17:55;60.42;40.03;80.89;;
45651;Laerm;31365;48.858;8.530;2023-03-13T04:20:25;53.02;38.67;72.38;;
45651;Laerm;31365;48.858;8.530;2023-03-13T04:22:56;61.20;39.92;78.53;;
45651;Laerm;31365;48.858;8.530;2023-03-13T04:25:25;63.31;39.92;81.27;;
45651;Laerm;31365;48.858;8.530;2023-03-13T04:27:56;60.90;40.33;77.44;;
45651;Laerm;31365;48.858;8.530;2023-03-13T04:30:29;60.01;41.46;80.02;;
45651;Laerm;31365;48.858;8.530;2023-03-13T04:33:21;62.99;41.14;80.50;;
45651;Laerm;31365;48.858;8.530;2023-03-13T04:36:03;62.68;40.33;81.10;;
45651;Laerm;31365;48.858;8.530;2023-03-13T04:39:01;61.76;41.61;80.98;;
45651;Laerm;31365;48.858;8.530;2023-03-13T04:44:43;66.27;40.33;84.19;;
45651;Laerm;31365;48.858;8.530;2023-03-13T04:47:23;59.20;41.46;74.21;;
45651;Laerm;31365;48.858;8.530;2023-03-13T04:50:09;58.76;40.23;74.85;;
45651;Laerm;31365;48.858;8.530;2023-03-13T04:52:56;62.11;41.75;80.27;;
45651;Laerm;31365;48.858;8.530;2023-03-13T04:55:46;62.76;40.98;78.14;;
45651;Laerm;31365;48.858;8.530;2023-03-13T04:58:51;61.36;41.14;80.09;;
45651;Laerm;31365;48.858;8.530;2023-03-13T05:01:38;60.60;39.92;76.43;;
45651;Laerm;31365;48.858;8.530;2023-03-13T05:04:14;62.54;43.34;76.98;;
45651;Laerm;31365;48.858;8.530;2023-03-13T05:06:56;61.13;41.96;75.91;;
45651;Laerm;31365;48.858;8.530;2023-03-13T05:09:41;58.51;40.43;78.27;;
45651;Laerm;31365;48.858;8.530;2023-03-13T05:12:29;59.21;39.21;76.78;;
45651;Laerm;31365;48.858;8.530;2023-03-13T05:15:14;66.91;43.04;85.93;;
45651;Laerm;31365;48.858;8.530;2023-03-13T05:18:11;63.01;41.38;77.07;;
45651;Laerm;31365;48.858;8.530;2023-03-13T05:20:46;64.38;42.71;79.70;;
45651;Laerm;31365;48.858;8.530;2023-03-13T05:23:33;66.07;44.76;78.79;;
45651;Laerm;31365;48.858;8.530;2023-03-13T05:26:20;63.96;43.19;80.03;;
45651;Laerm;31365;48.858;8.530;2023-03-13T05:29:04;68.45;46.48;87.99;;
45651;Laerm;31365;48.858;8.530;2023-03-13T05:31:41;71.62;42.65;103.22;;
45651;Laerm;31365;48.858;8.530;2023-03-13T05:34:17;63.48;41.89;77.66;;
45651;Laerm;31365;48.858;8.530;2023-03-13T05:36:58;64.05;42.98;82.53;;
45651;Laerm;31365;48.858;8.530;2023-03-13T05:39:50;66.24;43.99;81.22;;
45651;Laerm;31365;48.858;8.530;2023-03-13T05:42:35;65.55;43.90;79.71;;
45651;Laerm;31365;48.858;8.530;2023-03-13T05:48:16;66.89;44.51;82.11;;
45651;Laerm;31365;48.858;8.530;2023-03-13T05:50:59;66.99;43.24;80.47;;
45651;Laerm;31365;48.858;8.530;2023-03-13T05:53:41;65.92;43.94;81.32;;
45651;Laerm;31365;48.858;8.530;2023-03-13T05:56:24;65.86;43.29;79.15;;
45651;Laerm;31365;48.858;8.530;2023-03-13T05:59:11;64.97;42.16;79.32;;
45651;Laerm;31365;48.858;8.530;2023-03-13T06:02:19;65.69;45.72;78.44;;
45651;Laerm;31365;48.858;8.530;2023-03-13T06:04:49;65.22;42.35;80.89;;
45651;Laerm;31365;48.858;8.530;2023-03-13T06:07:18;62.85;41.89;78.64;;
45651;Laerm;31365;48.858;8.530;2023-03-13T06:09:47;64.83;41.82;80.47;;
45651;Laerm;31365;48.858;8.530;2023-03-13T06:12:15;66.45;43.39;78.25;;
45651;Laerm;31365;48.858;8.530;2023-03-13T06:14:44;67.05;49.20;78.86;;
45651;Laerm;31365;48.858;8.530;2023-03-13T06:17:25;66.37;46.93;79.78;;
45651;Laerm;31365;48.858;8.530;2023-03-13T06:19:54;67.42;45.57;79.97;;
45651;Laerm;31365;48.858;8.530;2023-03-13T06:22:22;65.61;46.33;79.22;;
45651;Laerm;31365;48.858;8.530;2023-03-13T06:24:51;67.69;48.20;82.12;;
45651;Laerm;31365;48.858;8.530;2023-03-13T06:27:20;68.71;45.42;89.59;;
45651;Laerm;31365;48.858;8.530;2023-03-13T06:29:48;67.88;42.82;97.26;;
45651;Laerm;31365;48.858;8.530;2023-03-13T06:32:17;66.31;45.20;82.19;;
45651;Laerm;31365;48.858;8.530;2023-03-13T06:34:47;66.59;42.59;87.96;;
45651;Laerm;31365;48.858;8.530;2023-03-13T06:37:15;65.98;41.75;79.27;;
45651;Laerm;31365;48.858;8.530;2023-03-13T06:39:44;63.83;44.15;76.43;;
45651;Laerm;31365;48.858;8.530;2023-03-13T06:42:12;65.73;43.58;78.41;;
45651;Laerm;31365;48.858;8.530;2023-03-13T06:44:41;64.68;44.54;76.91;;
45651;Laerm;31365;48.858;8.530;2023-03-13T06:47:09;66.33;47.67;78.21;;
45651;Laerm;31365;48.858;8.530;2023-03-13T06:49:41;65.84;44.43;80.04;;
45651;Laerm;31365;48.858;8.530;2023-03-13T06:52:11;66.49;45.66;79.41;;
45651;Laerm;31365;48.858;8.530;2023-03-13T06:54:40;66.04;44.94;85.28;;
45651;Laerm;31365;48.858;8.530;2023-03-13T06:57:08;66.99;48.36;81.77;;
45651;Laerm;31365;48.858;8.530;2023-03-13T06:59:36;65.58;41.61;78.49;;
45651;Laerm;31365;48.858;8.530;2023-03-13T07:02:05;65.43;42.82;82.54;;
45651;Laerm;31365;48.858;8.530;2023-03-13T07:04:33;63.58;42.59;76.53;;
45651;Laerm;31365;48.858;8.530;2023-03-13T07:07:02;69.18;44.35;99.35;;
45651;Laerm;31365;48.858;8.530;2023-03-13T07:09:32;63.77;45.89;76.30;;
45651;Laerm;31365;48.858;8.530;2023-03-13T07:12:00;65.33;43.09;79.38;;
45651;Laerm;31365;48.858;8.530;2023-03-13T07:14:29;65.01;43.77;79.36;;
45651;Laerm;31365;48.858;8.530;2023-03-13T07:16:58;67.07;46.69;80.12;;
45651;Laerm;31365;48.858;8.530;2023-03-13T07:19:27;66.03;42.22;82.56;;
45651;Laerm;31365;48.858;8.530;2023-03-13T07:21:55;63.88;44.19;79.61;;
45651;Laerm;31365;48.858;8.530;2023-03-13T07:24:24;63.42;45.07;74.31;;
45651;Laerm;31365;48.858;8.530;2023-03-13T07:26:54;63.74;43.14;77.66;;
45651;Laerm;31365;48.858;8.530;2023-03-13T07:29:33;66.61;44.62;93.76;;
45651;Laerm;31365;48.858;8.530;2023-03-13T07:32:02;65.26;43.58;77.98;;
45651;Laerm;31365;48.858;8.530;2023-03-13T07:34:30;72.42;45.60;100.01;;
45651;Laerm;31365;48.858;8.530;2023-03-13T07:36:59;64.85;43.44;78.87;;
45651;Laerm;31365;48.858;8.530;2023-03-13T07:39:27;62.93;41.53;77.33;;
45651;Laerm;31365;48.858;8.530;2023-03-13T07:41:57;65.56;41.89;80.72;;
45651;Laerm;31365;48.858;8.530;2023-03-13T07:44:25;64.02;42.93;78.11;;
45651;Laerm;31365;48.858;8.530;2023-03-13T07:46:54;64.75;43.72;80.35;;
45651;Laerm;31365;48.858;8.530;2023-03-13T07:49:22;64.26;42.35;78.74;;
45651;Laerm;31365;48.858;8.530;2023-03-13T07:51:51;64.16;42.35;76.20;;
45651;Laerm;31365;48.858;8.530;2023-03-13T07:54:20;62.83;41.68;76.82;;
45651;Laerm;31365;48.858;8.530;2023-03-13T07:56:48;63.48;41.06;77.88;;
45651;Laerm;31365;48.858;8.530;2023-03-13T07:59:18;63.68;42.16;74.77;;
45651;Laerm;31365;48.858;8.530;2023-03-13T08:01:46;63.20;41.38;77.02;;
45651;Laerm;31365;48.858;8.530;2023-03-13T08:04:15;63.08;42.09;76.75;;
45651;Laerm;31365;48.858;8.530;2023-03-13T08:06:43;65.24;44.11;79.85;;
45651;Laerm;31365;48.858;8.530;2023-03-13T08:09:11;64.67;46.82;77.94;;
45651;Laerm;31365;48.858;8.530;2023-03-13T08:11:39;64.43;42.47;78.58;;
45651;Laerm;31365;48.858;8.530;2023-03-13T08:16:39;64.39;43.68;78.56;;
45651;Laerm;31365;48.858;8.530;2023-03-13T08:19:09;63.25;41.89;77.43;;
45651;Laerm;31365;48.858;8.530;2023-03-13T08:21:37;62.84;40.80;81.92;;
45651;Laerm;31365;48.858;8.530;2023-03-13T08:24:07;63.14;40.13;81.59;;
45651;Laerm;31365;48.858;8.530;2023-03-13T08:26:39;65.45;43.29;80.18;;
45651;Laerm;31365;48.858;8.530;2023-03-13T08:29:10;63.15;40.23;75.09;;
45651;Laerm;31365;48.858;8.530;2023-03-13T08:31:45;65.78;42.16;79.52;;
45651;Laerm;31365;48.858;8.530;2023-03-13T08:34:15;62.10;44.11;76.42;;
45651;Laerm;31365;48.858;8.530;2023-03-13T08:36:44;60.46;41.53;76.40;;
45651;Laerm;31365;48.858;8.530;2023-03-13T08:39:15;61.59;40.23;76.03;;
45651;Laerm;31365;48.858;8.530;2023-03-13T08:41:43;63.54;41.61;74.58;;
45651;Laerm;31365;48.858;8.530;2023-03-13T08:44:15;63.00;42.22;77.36;;
45651;Laerm;31365;48.858;8.530;2023-03-13T08:46:46;60.38;41.96;74.21;;
45651;Laerm;31365;48.858;8.530;2023-03-13T08:49:15;66.38;44.82;82.22;;
45651;Laerm;31365;48.858;8.530;2023-03-13T08:51:44;60.84;40.98;74.35;;
45651;Laerm;31365;48.858;8.530;2023-03-13T08:54:12;60.07;41.22;74.95;;
45651;Laerm;31365;48.858;8.530;2023-03-13T08:56:40;60.65;40.33;76.75;;
45651;Laerm;31365;48.858;8.530;2023-03-13T08:59:09;64.99;42.47;78.58;;
45651;Laerm;31365;48.858;8.530;2023-03-13T09:01:39;61.74;41.61;76.56;;
45651;Laerm;31365;48.858;8.530;2023-03-13T09:04:08;66.30;42.35;85.54;;
45651;Laerm;31365;48.858;8.530;2023-03-13T09:06:37;60.79;41.14;76.86;;
45651;Laerm;31365;48.858;8.530;2023-03-13T09:09:07;63.53;40.23;79.72;;
45651;Laerm;31365;48.858;8.530;2023-03-13T09:11:36;64.26;40.43;81.15;;
45651;Laerm;31365;48.858;8.530;2023-03-13T09:14:06;62.69;42.85;79.18;;
45651;Laerm;31365;48.858;8.530;2023-03-13T09:16:35;62.97;41.38;78.01;;
45651;Laerm;31365;48.858;8.530;2023-03-13T09:19:03;62.74;40.62;79.89;;
45651;Laerm;31365;48.858;8.530;2023-03-13T09:21:34;62.75;42.16;76.51;;
45651;Laerm;31365;48.858;8.530;2023-03-13T09:24:03;64.98;42.88;77.79;;
45651;Laerm;31365;48.858;8.530;2023-03-13T09:26:31;66.38;41.06;84.37;;
45651;Laerm;31365;48.858;8.530;2023-03-13T09:28:59;67.01;42.93;86.26;;
45651;Laerm;31365;48.858;8.530;2023-03-13T09:31:29;62.75;41.14;77.24;;
45651;Laerm;31365;48.858;8.530;2023-03-13T09:33:59;61.38;40.80;73.93;;
45651;Laerm;31365;48.858;8.530;2023-03-13T09:36:28;61.15;39.70;73.72;;
45651;Laerm;31365;48.858;8.530;2023-03-13T09:38:59;62.92;41.53;77.79;;
45651;Laerm;31365;48.858;8.530;2023-03-13T09:41:35;66.31;42.47;83.38;;
45651;Laerm;31365;48.858;8.530;2023-03-13T09:44:16;65.47;41.89;83.52;;
45651;Laerm;31365;48.858;8.530;2023-03-13T09:46:58;65.44;42.76;80.74;;
45651;Laerm;31365;48.858;8.530;2023-03-13T09:49:32;62.25;43.14;85.03;;
45651;Laerm;31365;48.858;8.530;2023-03-13T09:52:16;63.30;41.96;77.93;;
45651;Laerm;31365;48.858;8.530;2023-03-13T09:54:53;62.18;41.89;75.56;;
45651;Laerm;31365;48.858;8.530;2023-03-13T09:57:32;63.28;41.46;79.23;;
45651;Laerm;31365;48.858;8.530;2023-03-13T10:00:07;61.90;40.53;78.64;;
45651;Laerm;31365;48.858;8.530;2023-03-13T10:02:46;61.81;42.22;76.14;;
45651;Laerm;31365;48.858;8.530;2023-03-13T10:05:22;61.63;42.35;74.77;;
45651;Laerm;31365;48.858;8.530;2023-03-13T10:07:57;65.92;42.47;81.54;;
45651;Laerm;31365;48.858;8.530;2023-03-13T10:10:42;62.04;40.71;75.11;;
45651;Laerm;31365;48.858;8.530;2023-03-13T10:13:19;62.17;41.75;75.72;;
45651;Laerm;31365;48.858;8.530;2023-03-13T10:15:54;63.55;40.23;79.14;;
45651;Laerm;31365;48.858;8.530;2023-03-13T10:18:24;65.53;41.96;82.93;;
45651;Laerm;31365;48.858;8.530;2023-03-13T10:20:58;62.67;41.11;84.26;;
45651;Laerm;31365;48.858;8.530;2023-03-13T10:23:38;63.35;40.53;77.05;;
45651;Laerm;31365;48.858;8.530;2023-03-13T10:26:15;62.23;39.81;80.30;;
45651;Laerm;31365;48.858;8.530;2023-03-13T10:28:46;62.74;41.38;78.14;;
45651;Laerm;31365;48.858;8.530;2023-03-13T10:31:25;65.45;43.29;84.41;;
45651;Laerm;31365;48.858;8.530;2023-03-13T10:34:05;62.95;41.53;83.52;;
45651;Laerm;31365;48.858;8.530;2023-03-13T10:36:41;63.73;42.41;75.25;;
45651;Laerm;31365;48.858;8.530;2023-03-13T10:39:17;60.22;40.71;74.64;;
45651;Laerm;31365;48.858;8.530;2023-03-13T10:41:48;61.19;40.33;77.18;;
45651;Laerm;31365;48.858;8.530;2023-03-13T10:44:20;64.57;42.65;76.55;;
45651;Laerm;31365;48.858;8.530;2023-03-13T10:46:50;59.04;40.62;70.66;;
45651;Laerm;31365;48.858;8.530;2023-03-13T10:49:21;59.92;40.62;71.51;;
45651;Laerm;31365;48.858;8.530;2023-03-13T10:51:53;62.63;42.47;73.86;;
45651;Laerm;31365;48.858;8.530;2023-03-13T10:54:24;63.61;41.14;79.18;;
45651;Laerm;31365;48.858;8.530;2023-03-13T10:57:24;61.84;42.03;78.98;;
45651;Laerm;31365;48.858;8.530;2023-03-13T10:59:56;63.79;44.27;82.68;;
45651;Laerm;31365;48.858;8.530;2023-03-13T11:02:30;64.10;44.76;75.93;;
45651;Laerm;31365;48.858;8.530;2023-03-13T11:04:59;64.75;44.69;75.67;;
45651;Laerm;31365;48.858;8.530;2023-03-13T11:07:32;64.32;46.18;78.26;;
45651;Laerm;31365;48.858;8.530;2023-03-13T11:10:16;65.62;50.55;79.18;;
45651;Laerm;31365;48.858;8.530;2023-03-13T11:12:49;64.71;46.13;76.18;;
45651;Laerm;31365;48.858;8.530;2023-03-13T11:15:23;65.30;46.40;77.39;;
45651;Laerm;31365;48.858;8.530;2023-03-13T11:18:00;63.42;44.38;75.62;;
45651;Laerm;31365;48.858;8.530;2023-03-13T11:20:37;63.70;43.94;77.54;;
45651;Laerm;31365;48.858;8.530;2023-03-13T11:23:18;65.00;44.80;84.68;;
45651;Laerm;31365;48.858;8.530;2023-03-13T11:28:46;65.80;42.16;85.10;;
45651;Laerm;31365;48.858;8.530;2023-03-13T11:31:23;62.96;40.53;75.87;;
45651;Laerm;31365;48.858;8.530;2023-03-13T11:34:02;63.22;40.89;75.81;;
45651;Laerm;31365;48.858;8.530;2023-03-13T11:36:35;60.26;42.13;74.89;;
45651;Laerm;31365;48.858;8.530;2023-03-13T11:39:29;58.27;41.53;71.66;;
45651;Laerm;31365;48.858;8.530;2023-03-13T11:42:16;62.77;40.62;74.57;;
45651;Laerm;31365;48.858;8.530;2023-03-13T11:45:01;61.84;40.03;74.47;;
45651;Laerm;31365;48.858;8.530;2023-03-13T11:47:46;63.37;41.82;80.38;;
45651;Laerm;31365;48.858;8.530;2023-03-13T11:50:32;61.26;39.58;76.35;;
45651;Laerm;31365;48.858;8.530;2023-03-13T11:53:26;59.91;40.53;73.31;;
45651;Laerm;31365;48.858;8.530;2023-03-13T11:56:09;66.25;42.82;84.81;;
45651;Laerm;31365;48.858;8.530;2023-03-13T11:58:56;62.75;42.53;80.54;;
45651;Laerm;31365;48.858;8.530;2023-03-13T12:01:35;62.27;40.13;75.65;;
45651;Laerm;31365;48.858;8.530;2023-03-13T12:04:12;63.29;43.14;81.46;;
45651;Laerm;31365;48.858;8.530;2023-03-13T12:06:50;63.05;41.19;79.55;;
45651;Laerm;31365;48.858;8.530;2023-03-13T12:09:25;62.62;43.39;77.58;;
45651;Laerm;31365;48.858;8.530;2023-03-13T12:12:00;61.54;40.89;80.56;;
45651;Laerm;31365;48.858;8.530;2023-03-13T12:14:36;63.98;43.46;78.21;;
45651;Laerm;31365;48.858;8.530;2023-03-13T12:17:12;63.91;42.98;81.82;;
45651;Laerm;31365;48.858;8.530;2023-03-13T12:19:52;59.59;40.43;76.05;;
45651;Laerm;31365;48.858;8.530;2023-03-13T12:22:27;61.90;39.70;82.29;;
45651;Laerm;31365;48.858;8.530;2023-03-13T12:25:05;61.13;42.82;73.93;;
45651;Laerm;31365;48.858;8.530;2023-03-13T12:27:42;63.36;43.54;78.85;;
45651;Laerm;31365;48.858;8.530;2023-03-13T12:30:24;61.98;42.65;80.42;;
45651;Laerm;31365;48.858;8.530;2023-03-13T12:33:09;65.35;42.29;93.86;;
45651;Laerm;31365;48.858;8.530;2023-03-13T12:35:45;61.71;41.96;77.93;;
45651;Laerm;31365;48.858;8.530;2023-03-13T12:41:00;60.67;42.41;76.30;;
45651;Laerm;31365;48.858;8.530;2023-03-13T12:43:33;59.54;41.89;77.93;;
45651;Laerm;31365;48.858;8.530;2023-03-13T12:46:33;60.20;42.82;74.72;;
45651;Laerm;31365;48.858;8.530;2023-03-13T12:49:28;62.40;42.29;82.33;;
45651;Laerm;31365;48.858;8.530;2023-03-13T12:52:21;63.77;42.41;83.90;;
45651;Laerm;31365;48.858;8.530;2023-03-13T12:55:22;60.64;41.46;77.76;;
45651;Laerm;31365;48.858;8.530;2023-03-13T12:58:12;59.90;42.35;73.38;;
45651;Laerm;31365;48.858;8.530;2023-03-13T13:00:48;63.63;43.49;75.27;;
45651;Laerm;31365;48.858;8.530;2023-03-13T13:03:29;63.93;43.24;81.00;;
45651;Laerm;31365;48.858;8.530;2023-03-13T13:06:08;62.81;42.47;81.73;;
45651;Laerm;31365;48.858;8.530;2023-03-13T13:08:40;64.19;43.54;78.60;;
45651;Laerm;31365;48.858;8.530;2023-03-13T13:11:45;65.73;43.29;86.71;;
45651;Laerm;31365;48.858;8.530;2023-03-13T13:14:58;60.70;44.03;73.98;;
45651;Laerm;31365;48.858;8.530;2023-03-13T13:17:42;60.99;43.72;78.96;;
45651;Laerm;31365;48.858;8.530;2023-03-13T13:20:41;62.73;43.60;80.34;;
45651;Laerm;31365;48.858;8.530;2023-03-13T13:23:31;60.84;42.71;72.30;;
45651;Laerm;31365;48.858;8.530;2023-03-13T13:26:47;61.97;43.34;74.80;;
45651;Laerm;31365;48.858;8.530;2023-03-13T13:29:55;64.54;47.61;79.27;;
45651;Laerm;31365;48.858;8.530;2023-03-13T13:32:40;62.88;48.23;72.48;;
45651;Laerm;31365;48.858;8.530;2023-03-13T13:35:23;63.74;48.28;76.71;;
45651;Laerm;31365;48.858;8.530;2023-03-13T13:38:18;62.92;45.66;75.73;;
45651;Laerm;31365;48.858;8.530;2023-03-13T13:41:02;60.93;42.93;76.34;;
45651;Laerm;31365;48.858;8.530;2023-03-13T13:43:33;59.33;41.61;72.31;;
45651;Laerm;31365;48.858;8.530;2023-03-13T13:46:05;61.23;41.46;73.87;;
45651;Laerm;31365;48.858;8.530;2023-03-13T13:48:44;59.63;41.61;76.43;;
45651;Laerm;31365;48.858;8.530;2023-03-13T13:51:23;60.92;42.22;79.88;;
45651;Laerm;31365;48.858;8.530;2023-03-13T13:53:57;60.69;42.76;74.15;;
45651;Laerm;31365;48.858;8.530;2023-03-13T13:56:39;59.50;40.80;76.86;;
45651;Laerm;31365;48.858;8.530;2023-03-13T13:59:29;60.66;41.30;77.86;;
45651;Laerm;31365;48.858;8.530;2023-03-13T14:02:21;60.49;41.82;72.32;;
45651;Laerm;31365;48.858;8.530;2023-03-13T14:05:00;62.07;42.41;78.61;;
45651;Laerm;31365;48.858;8.530;2023-03-13T14:07:47;61.09;42.35;75.61;;
45651;Laerm;31365;48.858;8.530;2023-03-13T14:10:34;60.49;40.98;75.21;;
45651;Laerm;31365;48.858;8.530;2023-03-13T14:13:13;62.83;42.59;81.26;;
45651;Laerm;31365;48.858;8.530;2023-03-13T14:15:45;57.15;40.23;72.60;;
45651;Laerm;31365;48.858;8.530;2023-03-13T14:18:20;60.53;40.13;74.56;;
45651;Laerm;31365;48.858;8.530;2023-03-13T14:20:56;58.99;41.53;75.18;;
45651;Laerm;31365;48.858;8.530;2023-03-13T14:23:32;61.08;40.62;73.10;;
45651;Laerm;31365;48.858;8.530;2023-03-13T14:26:13;65.57;42.35;81.33;;
45651;Laerm;31365;48.858;8.530;2023-03-13T14:28:48;61.56;42.16;76.38;;
45651;Laerm;31365;48.858;8.530;2023-03-13T14:31:26;57.72;41.14;72.81;;
45651;Laerm;31365;48.858;8.530;2023-03-13T14:33:57;63.45;42.19;78.54;;
45651;Laerm;31365;48.858;8.530;2023-03-13T14:36:27;62.97;44.47;86.39;;
45651;Laerm;31365;48.858;8.530;2023-03-13T14:38:57;64.78;42.29;83.73;;
45651;Laerm;31365;48.858;8.530;2023-03-13T14:41:30;64.97;43.99;79.06;;